sensor_id;sensor_type;location;lat;lon;timestamp;temperature;humidity
64987;DHT22;67903;52.108;9.358;2023-03-01T00:01:14;-2.70;76.20
64987;DHT22;67903;52.108;9.358;2023-03-01T00:03:42;-2.80;76.70
64987;DHT22;67903;52.108;9.358;2023-03-01T00:06:09;-2.80;77.00
64987;DHT22;67903;52.108;9.358;2023-03-01T00:08:37;-2.80;77.10
64987;DHT22;67903;52.108;9.358;2023-03-01T00:11:14;-2.80;77.30
64987;DHT22;67903;52.108;9.358;2023-03-01T00:13:42;-2.70;77.20
64987;DHT22;67903;52.108;9.358;2023-03-01T00:16:11;-2.80;77.10
64987;DHT22;67903;52.108;9.358;2023-03-01T00:18:39;-2.80;77.20
64987;DHT22;67903;52.108;9.358;2023-03-01T00:21:06;-2.80;77.50
64987;DHT22;67903;52.108;9.358;2023-03-01T00:23:36;-2.80;77.20
64987;DHT22;67903;52.108;9.358;2023-03-01T00:26:09;-2.80;77.10
64987;DHT22;67903;52.108;9.358;2023-03-01T00:28:39;-2.80;77.40
64987;DHT22;67903;52.108;9.358;2023-03-01T00:31:09;-2.80;77.40
64987;DHT22;67903;52.108;9.358;2023-03-01T00:33:37;-2.90;77.60
64987;DHT22;67903;52.108;9.358;2023-03-01T00:36:05;-2.90;77.90
64987;DHT22;67903;52.108;9.358;2023-03-01T00:38:36;-3.00;78.00
64987;DHT22;67903;52.108;9.358;2023-03-01T00:41:08;-3.00;78.10
64987;DHT22;67903;52.108;9.358;2023-03-01T00:43:35;-3.00;78.20
64987;DHT22;67903;52.108;9.358;2023-03-01T00:46:05;-3.00;78.10
64987;DHT22;67903;52.108;9.358;2023-03-01T00:48:33;-3.00;77.90
64987;DHT22;67903;52.108;9.358;2023-03-01T00:53:40;-3.00;77.80
64987;DHT22;67903;52.108;9.358;2023-03-01T00:56:09;-3.00;78.10
64987;DHT22;67903;52.108;9.358;2023-03-01T00:58:37;-3.10;78.00
64987;DHT22;67903;52.108;9.358;2023-03-01T01:01:13;-3.10;78.20
64987;DHT22;67903;52.108;9.358;2023-03-01T01:04:02;-3.10;78.20
64987;DHT22;67903;52.108;9.358;2023-03-01T01:08:59;-3.20;78.50
64987;DHT22;67903;52.108;9.358;2023-03-01T01:11:28;-3.20;78.50
64987;DHT22;67903;52.108;9.358;2023-03-01T01:13:55;-3.20;78.60
64987;DHT22;67903;52.108;9.358;2023-03-01T01:16:24;-3.30;78.80
64987;DHT22;67903;52.108;9.358;2023-03-01T01:18:51;-3.30;79.00
64987;DHT22;67903;52.108;9.358;2023-03-01T01:21:21;-3.30;79.10
64987;DHT22;67903;52.108;9.358;2023-03-01T01:23:48;-3.30;78.60
64987;DHT22;67903;52.108;9.358;2023-03-01T01:26:18;-3.30;78.30
64987;DHT22;67903;52.108;9.358;2023-03-01T01:28:46;-3.50;78.40
64987;DHT22;67903;52.108;9.358;2023-03-01T01:31:13;-3.40;78.20
64987;DHT22;67903;52.108;9.358;2023-03-01T01:33:40;-3.50;78.40
64987;DHT22;67903;52.108;9.358;2023-03-01T01:36:08;-3.40;78.30
64987;DHT22;67903;52.108;9.358;2023-03-01T01:38:36;-3.40;78.30
64987;DHT22;67903;52.108;9.358;2023-03-01T01:41:05;-3.40;78.50
64987;DHT22;67903;52.108;9.358;2023-03-01T01:43:38;-3.40;78.30
64987;DHT22;67903;52.108;9.358;2023-03-01T01:47:16;-3.30;78.10
64987;DHT22;67903;52.108;9.358;2023-03-01T01:51:45;-3.40;78.30
64987;DHT22;67903;52.108;9.358;2023-03-01T01:54:23;-3.30;78.30
64987;DHT22;67903;52.108;9.358;2023-03-01T01:56:58;-3.30;78.30
64987;DHT22;67903;52.108;9.358;2023-03-01T01:59:28;-3.40;78.30
64987;DHT22;67903;52.108;9.358;2023-03-01T02:01:59;-3.50;78.70
64987;DHT22;67903;52.108;9.358;2023-03-01T02:04:28;-3.50;79.10
64987;DHT22;67903;52.108;9.358;2023-03-01T02:07:01;-3.40;79.10
64987;DHT22;67903;52.108;9.358;2023-03-01T02:09:30;-3.40;78.90
64987;DHT22;67903;52.108;9.358;2023-03-01T02:12:01;-3.40;78.70
64987;DHT22;67903;52.108;9.358;2023-03-01T02:14:29;-3.50;78.70
64987;DHT22;67903;52.108;9.358;2023-03-01T02:16:55;-3.60;78.70
64987;DHT22;67903;52.108;9.358;2023-03-01T02:22:28;-3.80;79.00
64987;DHT22;67903;52.108;9.358;2023-03-01T02:25:06;-3.80;79.00
64987;DHT22;67903;52.108;9.358;2023-03-01T02:27:57;-3.60;79.00
64987;DHT22;67903;52.108;9.358;2023-03-01T02:30:25;-3.60;79.00
64987;DHT22;67903;52.108;9.358;2023-03-01T02:32:55;-3.60;78.80
64987;DHT22;67903;52.108;9.358;2023-03-01T02:35:35;-3.80;79.00
64987;DHT22;67903;52.108;9.358;2023-03-01T02:38:03;-3.70;78.90
64987;DHT22;67903;52.108;9.358;2023-03-01T02:40:34;-3.70;79.00
64987;DHT22;67903;52.108;9.358;2023-03-01T02:43:04;-3.60;79.00
64987;DHT22;67903;52.108;9.358;2023-03-01T02:45:32;-3.60;78.80
64987;DHT22;67903;52.108;9.358;2023-03-01T02:47:59;-3.60;78.90
64987;DHT22;67903;52.108;9.358;2023-03-01T02:53:10;-3.60;78.60
64987;DHT22;67903;52.108;9.358;2023-03-01T02:55:40;-3.80;78.80
64987;DHT22;67903;52.108;9.358;2023-03-01T02:58:07;-3.80;78.90
64987;DHT22;67903;52.108;9.358;2023-03-01T03:00:40;-3.80;79.00
64987;DHT22;67903;52.108;9.358;2023-03-01T03:03:16;-3.80;78.90
64987;DHT22;67903;52.108;9.358;2023-03-01T03:05:45;-3.80;78.60
64987;DHT22;67903;52.108;9.358;2023-03-01T03:08:12;-3.80;78.70
64987;DHT22;67903;52.108;9.358;2023-03-01T03:10:40;-3.80;78.70
64987;DHT22;67903;52.108;9.358;2023-03-01T03:13:10;-3.80;79.00
64987;DHT22;67903;52.108;9.358;2023-03-01T03:15:38;-3.90;78.80
64987;DHT22;67903;52.108;9.358;2023-03-01T03:18:08;-4.00;79.00
64987;DHT22;67903;52.108;9.358;2023-03-01T03:20:36;-4.00;79.00
64987;DHT22;67903;52.108;9.358;2023-03-01T03:23:03;-4.00;79.20
64987;DHT22;67903;52.108;9.358;2023-03-01T03:25:30;-4.00;79.30
64987;DHT22;67903;52.108;9.358;2023-03-01T03:27:57;-4.00;79.30
64987;DHT22;67903;52.108;9.358;2023-03-01T03:30:30;-4.00;79.10
64987;DHT22;67903;52.108;9.358;2023-03-01T03:32:58;-4.00;79.30
64987;DHT22;67903;52.108;9.358;2023-03-01T03:35:33;-4.10;79.30
64987;DHT22;67903;52.108;9.358;2023-03-01T03:38:05;-4.10;79.40
64987;DHT22;67903;52.108;9.358;2023-03-01T03:40:36;-4.20;79.50
64987;DHT22;67903;52.108;9.358;2023-03-01T03:43:06;-4.20;79.50
64987;DHT22;67903;52.108;9.358;2023-03-01T03:45:33;-4.30;79.50
64987;DHT22;67903;52.108;9.358;2023-03-01T03:48:01;-4.30;79.80
64987;DHT22;67903;52.108;9.358;2023-03-01T03:50:28;-4.20;80.00
64987;DHT22;67903;52.108;9.358;2023-03-01T03:52:55;-4.20;79.70
64987;DHT22;67903;52.108;9.358;2023-03-01T03:55:22;-4.10;79.50
64987;DHT22;67903;52.108;9.358;2023-03-01T03:57:49;-4.10;79.50
64987;DHT22;67903;52.108;9.358;2023-03-01T04:00:20;-4.10;79.20
64987;DHT22;67903;52.108;9.358;2023-03-01T04:02:48;-4.10;79.40
64987;DHT22;67903;52.108;9.358;2023-03-01T04:05:17;-4.20;79.40
64987;DHT22;67903;52.108;9.358;2023-03-01T04:07:44;-4.30;79.60
64987;DHT22;67903;52.108;9.358;2023-03-01T04:10:14;-4.20;79.70
64987;DHT22;67903;52.108;9.358;2023-03-01T04:12:41;-4.20;79.70
64987;DHT22;67903;52.108;9.358;2023-03-01T04:15:11;-4.10;79.90
64987;DHT22;67903;52.108;9.358;2023-03-01T04:17:45;-4.10;79.90
64987;DHT22;67903;52.108;9.358;2023-03-01T04:20:16;-4.00;79.80
64987;DHT22;67903;52.108;9.358;2023-03-01T04:23:07;-4.00;79.80
64987;DHT22;67903;52.108;9.358;2023-03-01T04:28:28;-4.00;80.00
64987;DHT22;67903;52.108;9.358;2023-03-01T04:30:57;-4.00;79.80
64987;DHT22;67903;52.108;9.358;2023-03-01T04:33:25;-4.10;79.80
64987;DHT22;67903;52.108;9.358;2023-03-01T04:35:52;-4.20;79.40
64987;DHT22;67903;52.108;9.358;2023-03-01T04:38:19;-4.30;79.50
64987;DHT22;67903;52.108;9.358;2023-03-01T04:40:47;-4.30;79.10
64987;DHT22;67903;52.108;9.358;2023-03-01T04:43:14;-4.40;79.60
64987;DHT22;67903;52.108;9.358;2023-03-01T04:45:42;-4.50;79.60
64987;DHT22;67903;52.108;9.358;2023-03-01T04:48:09;-4.50;79.70
64987;DHT22;67903;52.108;9.358;2023-03-01T04:50:35;-4.50;79.60
64987;DHT22;67903;52.108;9.358;2023-03-01T04:53:02;-4.40;79.80
64987;DHT22;67903;52.108;9.358;2023-03-01T04:55:29;-4.40;79.50
64987;DHT22;67903;52.108;9.358;2023-03-01T04:57:56;-4.40;79.80
64987;DHT22;67903;52.108;9.358;2023-03-01T05:00:23;-4.50;79.80
64987;DHT22;67903;52.108;9.358;2023-03-01T05:02:56;-4.40;79.80
64987;DHT22;67903;52.108;9.358;2023-03-01T05:05:32;-4.40;79.90
64987;DHT22;67903;52.108;9.358;2023-03-01T05:08:04;-4.40;79.90
64987;DHT22;67903;52.108;9.358;2023-03-01T05:10:34;-4.40;80.20
64987;DHT22;67903;52.108;9.358;2023-03-01T05:13:03;-4.30;80.50
64987;DHT22;67903;52.108;9.358;2023-03-01T05:15:31;-4.30;80.40
64987;DHT22;67903;52.108;9.358;2023-03-01T05:17:59;-4.20;80.50
64987;DHT22;67903;52.108;9.358;2023-03-01T05:20:28;-4.10;80.00
64987;DHT22;67903;52.108;9.358;2023-03-01T05:22:57;-4.10;79.80
64987;DHT22;67903;52.108;9.358;2023-03-01T05:25:25;-4.00;79.80
64987;DHT22;67903;52.108;9.358;2023-03-01T05:27:52;-4.10;79.80
64987;DHT22;67903;52.108;9.358;2023-03-01T05:30:19;-4.10;80.00
64987;DHT22;67903;52.108;9.358;2023-03-01T05:32:48;-4.10;80.10
64987;DHT22;67903;52.108;9.358;2023-03-01T05:35:17;-4.10;80.00
64987;DHT22;67903;52.108;9.358;2023-03-01T05:37:46;-4.10;79.80
64987;DHT22;67903;52.108;9.358;2023-03-01T05:40:16;-4.10;79.80
64987;DHT22;67903;52.108;9.358;2023-03-01T05:42:55;-4.10;79.80
64987;DHT22;67903;52.108;9.358;2023-03-01T05:45:24;-4.20;79.80
64987;DHT22;67903;52.108;9.358;2023-03-01T05:47:51;-4.30;79.80
64987;DHT22;67903;52.108;9.358;2023-03-01T05:50:21;-4.20;79.90
64987;DHT22;67903;52.108;9.358;2023-03-01T05:52:50;-4.30;79.70
64987;DHT22;67903;52.108;9.358;2023-03-01T05:55:19;-4.30;80.00
64987;DHT22;67903;52.108;9.358;2023-03-01T05:57:46;-4.30;80.00
64987;DHT22;67903;52.108;9.358;2023-03-01T06:00:15;-4.30;80.10
64987;DHT22;67903;52.108;9.358;2023-03-01T06:02:42;-4.40;80.40
64987;DHT22;67903;52.108;9.358;2023-03-01T06:05:10;-4.30;80.60
64987;DHT22;67903;52.108;9.358;2023-03-01T06:07:38;-4.40;80.60
64987;DHT22;67903;52.108;9.358;2023-03-01T06:10:05;-4.30;80.90
64987;DHT22;67903;52.108;9.358;2023-03-01T06:12:34;-4.30;80.70
64987;DHT22;67903;52.108;9.358;2023-03-01T06:15:01;-4.40;80.80
64987;DHT22;67903;52.108;9.358;2023-03-01T06:17:33;-4.40;81.00
64987;DHT22;67903;52.108;9.358;2023-03-01T06:20:09;-4.30;80.90
64987;DHT22;67903;52.108;9.358;2023-03-01T06:22:37;-4.40;81.00
64987;DHT22;67903;52.108;9.358;2023-03-01T06:25:05;-4.40;80.90
64987;DHT22;67903;52.108;9.358;2023-03-01T06:27:33;-4.50;80.90
64987;DHT22;67903;52.108;9.358;2023-03-01T06:30:00;-4.50;80.90
64987;DHT22;67903;52.108;9.358;2023-03-01T06:32:28;-4.60;80.80
64987;DHT22;67903;52.108;9.358;2023-03-01T06:34:55;-4.60;80.70
64987;DHT22;67903;52.108;9.358;2023-03-01T06:37:22;-4.50;80.90
64987;DHT22;67903;52.108;9.358;2023-03-01T06:39:48;-4.50;80.70
64987;DHT22;67903;52.108;9.358;2023-03-01T06:42:15;-4.50;80.60
64987;DHT22;67903;52.108;9.358;2023-03-01T06:44:44;-4.50;80.50
64987;DHT22;67903;52.108;9.358;2023-03-01T06:47:11;-4.50;80.60
64987;DHT22;67903;52.108;9.358;2023-03-01T06:49:37;-4.50;80.50
64987;DHT22;67903;52.108;9.358;2023-03-01T06:52:04;-4.40;80.40
64987;DHT22;67903;52.108;9.358;2023-03-01T06:54:31;-4.50;80.40
64987;DHT22;67903;52.108;9.358;2023-03-01T06:56:58;-4.40;80.20
64987;DHT22;67903;52.108;9.358;2023-03-01T06:59:25;-4.30;80.00
64987;DHT22;67903;52.108;9.358;2023-03-01T07:01:51;-4.40;79.90
64987;DHT22;67903;52.108;9.358;2023-03-01T07:04:18;-4.30;79.80
64987;DHT22;67903;52.108;9.358;2023-03-01T07:06:45;-4.30;79.80
64987;DHT22;67903;52.108;9.358;2023-03-01T07:09:12;-4.30;79.90
64987;DHT22;67903;52.108;9.358;2023-03-01T07:11:38;-4.20;79.90
64987;DHT22;67903;52.108;9.358;2023-03-01T07:14:05;-4.20;80.10
64987;DHT22;67903;52.108;9.358;2023-03-01T07:16:33;-4.10;80.10
64987;DHT22;67903;52.108;9.358;2023-03-01T07:19:01;-4.00;80.00
64987;DHT22;67903;52.108;9.358;2023-03-01T07:21:27;-4.00;80.00
64987;DHT22;67903;52.108;9.358;2023-03-01T07:23:54;-4.00;80.00
64987;DHT22;67903;52.108;9.358;2023-03-01T07:26:21;-3.90;79.90
64987;DHT22;67903;52.108;9.358;2023-03-01T07:28:51;-3.90;80.00
64987;DHT22;67903;52.108;9.358;2023-03-01T07:31:18;-3.80;80.00
64987;DHT22;67903;52.108;9.358;2023-03-01T07:33:45;-3.70;79.90
64987;DHT22;67903;52.108;9.358;2023-03-01T07:36:12;-3.60;79.60
64987;DHT22;67903;52.108;9.358;2023-03-01T07:38:39;-3.60;79.10
64987;DHT22;67903;52.108;9.358;2023-03-01T07:41:06;-3.60;79.00
64987;DHT22;67903;52.108;9.358;2023-03-01T07:43:32;-3.50;78.80
64987;DHT22;67903;52.108;9.358;2023-03-01T07:46:00;-3.50;78.40
64987;DHT22;67903;52.108;9.358;2023-03-01T07:48:28;-3.40;78.30
64987;DHT22;67903;52.108;9.358;2023-03-01T07:51:01;-3.40;77.60
64987;DHT22;67903;52.108;9.358;2023-03-01T07:53:28;-3.30;77.40
64987;DHT22;67903;52.108;9.358;2023-03-01T07:56:09;-3.40;77.50
64987;DHT22;67903;52.108;9.358;2023-03-01T07:58:38;-3.20;77.60
64987;DHT22;67903;52.108;9.358;2023-03-01T08:01:07;-3.20;77.20
64987;DHT22;67903;52.108;9.358;2023-03-01T08:03:35;-3.20;77.30
64987;DHT22;67903;52.108;9.358;2023-03-01T08:06:04;-3.20;77.50
64987;DHT22;67903;52.108;9.358;2023-03-01T08:08:31;-3.10;77.30
64987;DHT22;67903;52.108;9.358;2023-03-01T08:11:00;-3.10;77.30
64987;DHT22;67903;52.108;9.358;2023-03-01T08:13:27;-3.00;77.00
64987;DHT22;67903;52.108;9.358;2023-03-01T08:15:54;-2.90;77.00
64987;DHT22;67903;52.108;9.358;2023-03-01T08:18:21;-2.80;76.70
64987;DHT22;67903;52.108;9.358;2023-03-01T08:20:48;-2.70;76.60
64987;DHT22;67903;52.108;9.358;2023-03-01T08:23:14;-2.60;76.40
64987;DHT22;67903;52.108;9.358;2023-03-01T08:25:42;-2.50;76.50
64987;DHT22;67903;52.108;9.358;2023-03-01T08:28:08;-2.40;76.20
64987;DHT22;67903;52.108;9.358;2023-03-01T08:30:35;-2.40;76.20
64987;DHT22;67903;52.108;9.358;2023-03-01T08:33:02;-2.30;76.20
64987;DHT22;67903;52.108;9.358;2023-03-01T08:35:29;-2.20;76.20
64987;DHT22;67903;52.108;9.358;2023-03-01T08:37:56;-2.20;75.70
64987;DHT22;67903;52.108;9.358;2023-03-01T08:40:22;-2.10;75.40
64987;DHT22;67903;52.108;9.358;2023-03-01T08:42:49;-2.10;75.40
64987;DHT22;67903;52.108;9.358;2023-03-01T08:45:16;-2.00;75.20
64987;DHT22;67903;52.108;9.358;2023-03-01T08:47:45;-1.90;74.60
64987;DHT22;67903;52.108;9.358;2023-03-01T08:50:11;-1.80;73.80
64987;DHT22;67903;52.108;9.358;2023-03-01T08:52:38;-1.70;73.50
64987;DHT22;67903;52.108;9.358;2023-03-01T08:55:06;-1.60;73.30
64987;DHT22;67903;52.108;9.358;2023-03-01T08:57:32;-1.50;73.20
64987;DHT22;67903;52.108;9.358;2023-03-01T08:59:59;-1.50;73.00
64987;DHT22;67903;52.108;9.358;2023-03-01T09:02:26;-1.40;72.50
64987;DHT22;67903;52.108;9.358;2023-03-01T09:04:53;-1.30;72.60
64987;DHT22;67903;52.108;9.358;2023-03-01T09:07:20;-1.30;72.90
64987;DHT22;67903;52.108;9.358;2023-03-01T09:09:47;-1.10;72.80
64987;DHT22;67903;52.108;9.358;2023-03-01T09:12:14;-0.90;71.60
64987;DHT22;67903;52.108;9.358;2023-03-01T09:14:41;-0.60;70.50
64987;DHT22;67903;52.108;9.358;2023-03-01T09:17:08;-0.40;69.40
64987;DHT22;67903;52.108;9.358;2023-03-01T09:19:35;-0.50;69.10
64987;DHT22;67903;52.108;9.358;2023-03-01T09:22:03;-0.50;69.50
64987;DHT22;67903;52.108;9.358;2023-03-01T09:24:31;-0.50;69.60
64987;DHT22;67903;52.108;9.358;2023-03-01T09:26:57;-0.50;70.10
64987;DHT22;67903;52.108;9.358;2023-03-01T09:29:24;-0.40;69.50
64987;DHT22;67903;52.108;9.358;2023-03-01T09:31:52;-0.40;69.80
64987;DHT22;67903;52.108;9.358;2023-03-01T09:34:22;-0.30;69.70
64987;DHT22;67903;52.108;9.358;2023-03-01T09:36:50;-0.30;69.60
64987;DHT22;67903;52.108;9.358;2023-03-01T09:39:18;-0.30;69.80
64987;DHT22;67903;52.108;9.358;2023-03-01T09:42:02;-0.10;69.40
64987;DHT22;67903;52.108;9.358;2023-03-01T09:44:45;-0.10;69.40
64987;DHT22;67903;52.108;9.358;2023-03-01T09:47:18;0.00;68.90
64987;DHT22;67903;52.108;9.358;2023-03-01T09:50:12;0.30;67.90
64987;DHT22;67903;52.108;9.358;2023-03-01T09:55:12;0.50;63.90
64987;DHT22;67903;52.108;9.358;2023-03-01T09:57:50;0.80;64.00
64987;DHT22;67903;52.108;9.358;2023-03-01T10:00:42;0.90;63.30
64987;DHT22;67903;52.108;9.358;2023-03-01T10:03:43;1.00;62.30
64987;DHT22;67903;52.108;9.358;2023-03-01T10:06:21;1.10;60.70
64987;DHT22;67903;52.108;9.358;2023-03-01T10:09:14;1.10;60.60
64987;DHT22;67903;52.108;9.358;2023-03-01T10:11:48;1.40;60.30
64987;DHT22;67903;52.108;9.358;2023-03-01T10:14:44;1.40;60.20
64987;DHT22;67903;52.108;9.358;2023-03-01T10:20:16;1.50;58.10
64987;DHT22;67903;52.108;9.358;2023-03-01T10:22:44;1.60;57.40
64987;DHT22;67903;52.108;9.358;2023-03-01T10:28:20;1.70;57.50
64987;DHT22;67903;52.108;9.358;2023-03-01T10:30:50;1.60;58.20
64987;DHT22;67903;52.108;9.358;2023-03-01T10:33:27;1.60;58.30
64987;DHT22;67903;52.108;9.358;2023-03-01T10:35:55;1.70;56.70
64987;DHT22;67903;52.108;9.358;2023-03-01T10:38:22;1.70;56.90
64987;DHT22;67903;52.108;9.358;2023-03-01T10:41:09;1.90;56.00
64987;DHT22;67903;52.108;9.358;2023-03-01T10:43:46;1.90;55.90
64987;DHT22;67903;52.108;9.358;2023-03-01T10:46:26;1.90;55.60
64987;DHT22;67903;52.108;9.358;2023-03-01T10:49:14;1.90;54.80
64987;DHT22;67903;52.108;9.358;2023-03-01T10:51:44;2.00;54.30
64987;DHT22;67903;52.108;9.358;2023-03-01T10:54:29;2.00;54.70
64987;DHT22;67903;52.108;9.358;2023-03-01T10:57:00;2.10;54.40
64987;DHT22;67903;52.108;9.358;2023-03-01T10:59:29;2.00;55.00
64987;DHT22;67903;52.108;9.358;2023-03-01T11:02:17;2.10;55.10
64987;DHT22;67903;52.108;9.358;2023-03-01T11:05:01;2.10;55.40
64987;DHT22;67903;52.108;9.358;2023-03-01T11:07:28;2.10;55.50
64987;DHT22;67903;52.108;9.358;2023-03-01T11:09:56;2.10;55.70
64987;DHT22;67903;52.108;9.358;2023-03-01T11:12:24;2.20;55.40
64987;DHT22;67903;52.108;9.358;2023-03-01T11:14:55;2.30;55.30
64987;DHT22;67903;52.108;9.358;2023-03-01T11:17:28;2.30;55.30
64987;DHT22;67903;52.108;9.358;2023-03-01T11:20:05;2.30;55.50
64987;DHT22;67903;52.108;9.358;2023-03-01T11:22:36;2.40;55.50
64987;DHT22;67903;52.108;9.358;2023-03-01T11:25:11;2.40;55.10
64987;DHT22;67903;52.108;9.358;2023-03-01T11:27:44;2.40;55.50
64987;DHT22;67903;52.108;9.358;2023-03-01T11:30:23;2.50;55.00
64987;DHT22;67903;52.108;9.358;2023-03-01T11:33:04;2.50;54.80
64987;DHT22;67903;52.108;9.358;2023-03-01T11:35:32;2.50;54.60
64987;DHT22;67903;52.108;9.358;2023-03-01T11:40:47;2.50;54.40
64987;DHT22;67903;52.108;9.358;2023-03-01T11:43:33;2.50;54.10
64987;DHT22;67903;52.108;9.358;2023-03-01T11:51:41;2.50;54.30
64987;DHT22;67903;52.108;9.358;2023-03-01T11:56:50;2.60;54.20
64987;DHT22;67903;52.108;9.358;2023-03-01T11:59:43;2.60;53.90
64987;DHT22;67903;52.108;9.358;2023-03-01T12:02:33;2.70;54.80
64987;DHT22;67903;52.108;9.358;2023-03-01T12:10:02;2.80;54.10
64987;DHT22;67903;52.108;9.358;2023-03-01T12:15:43;2.80;54.80
64987;DHT22;67903;52.108;9.358;2023-03-01T12:21:27;3.00;55.00
64987;DHT22;67903;52.108;9.358;2023-03-01T12:24:21;3.00;55.30
64987;DHT22;67903;52.108;9.358;2023-03-01T12:30:16;2.90;54.80
64987;DHT22;67903;52.108;9.358;2023-03-01T12:35:54;3.10;54.30
64987;DHT22;67903;52.108;9.358;2023-03-01T12:38:49;3.10;54.40
64987;DHT22;67903;52.108;9.358;2023-03-01T12:41:23;3.10;53.40
64987;DHT22;67903;52.108;9.358;2023-03-01T12:44:07;3.10;53.50
64987;DHT22;67903;52.108;9.358;2023-03-01T12:46:59;3.10;54.00
64987;DHT22;67903;52.108;9.358;2023-03-01T12:50:17;3.10;53.90
64987;DHT22;67903;52.108;9.358;2023-03-01T12:53:21;3.10;54.40
64987;DHT22;67903;52.108;9.358;2023-03-01T12:55:39;3.20;54.20
64987;DHT22;67903;52.108;9.358;2023-03-01T13:00:41;3.10;53.50
64987;DHT22;67903;52.108;9.358;2023-03-01T13:03:25;3.10;53.80
64987;DHT22;67903;52.108;9.358;2023-03-01T13:11:22;3.40;53.30
64987;DHT22;67903;52.108;9.358;2023-03-01T13:13:50;3.40;53.50
64987;DHT22;67903;52.108;9.358;2023-03-01T13:19:13;3.40;53.10
64987;DHT22;67903;52.108;9.358;2023-03-01T13:21:43;3.40;53.40
64987;DHT22;67903;52.108;9.358;2023-03-01T13:32:24;3.50;53.10
64987;DHT22;67903;52.108;9.358;2023-03-01T13:37:43;3.50;52.90
64987;DHT22;67903;52.108;9.358;2023-03-01T13:42:48;3.50;53.30
64987;DHT22;67903;52.108;9.358;2023-03-01T13:45:39;3.50;53.10
64987;DHT22;67903;52.108;9.358;2023-03-01T13:48:28;3.50;52.50
64987;DHT22;67903;52.108;9.358;2023-03-01T13:51:07;3.50;52.40
64987;DHT22;67903;52.108;9.358;2023-03-01T13:53:39;3.60;52.30
64987;DHT22;67903;52.108;9.358;2023-03-01T13:58:58;3.60;52.20
64987;DHT22;67903;52.108;9.358;2023-03-01T14:01:30;3.70;51.90
64987;DHT22;67903;52.108;9.358;2023-03-01T14:03:58;3.60;52.10
64987;DHT22;67903;52.108;9.358;2023-03-01T14:06:30;3.60;52.60
64987;DHT22;67903;52.108;9.358;2023-03-01T14:09:25;3.60;52.30
64987;DHT22;67903;52.108;9.358;2023-03-01T14:12:12;3.60;52.60
64987;DHT22;67903;52.108;9.358;2023-03-01T14:20:24;3.60;53.30
64987;DHT22;67903;52.108;9.358;2023-03-01T14:22:54;3.60;53.30
64987;DHT22;67903;52.108;9.358;2023-03-01T14:25:27;3.70;53.30
64987;DHT22;67903;52.108;9.358;2023-03-01T14:28:04;3.70;53.60
64987;DHT22;67903;52.108;9.358;2023-03-01T14:30:43;3.70;53.80
64987;DHT22;67903;52.108;9.358;2023-03-01T14:33:28;3.90;53.30
64987;DHT22;67903;52.108;9.358;2023-03-01T14:38:43;3.90;52.70
64987;DHT22;67903;52.108;9.358;2023-03-01T14:41:28;3.90;53.00
64987;DHT22;67903;52.108;9.358;2023-03-01T14:44:01;3.90;53.60
64987;DHT22;67903;52.108;9.358;2023-03-01T14:49:07;3.90;53.70
64987;DHT22;67903;52.108;9.358;2023-03-01T14:51:38;3.90;53.10
64987;DHT22;67903;52.108;9.358;2023-03-01T14:54:24;4.00;52.50
64987;DHT22;67903;52.108;9.358;2023-03-01T14:56:54;3.90;53.20
64987;DHT22;67903;52.108;9.358;2023-03-01T14:59:22;3.90;52.80
64987;DHT22;67903;52.108;9.358;2023-03-01T15:01:51;3.90;53.10
64987;DHT22;67903;52.108;9.358;2023-03-01T15:04:19;3.90;53.20
64987;DHT22;67903;52.108;9.358;2023-03-01T15:06:51;3.80;53.40
64987;DHT22;67903;52.108;9.358;2023-03-01T15:09:19;3.90;53.30
64987;DHT22;67903;52.108;9.358;2023-03-01T15:11:46;3.90;53.60
64987;DHT22;67903;52.108;9.358;2023-03-01T15:14:26;3.90;53.90
64987;DHT22;67903;52.108;9.358;2023-03-01T15:16:54;3.90;54.00
64987;DHT22;67903;52.108;9.358;2023-03-01T15:19:23;3.90;53.90
64987;DHT22;67903;52.108;9.358;2023-03-01T15:21:54;4.00;53.60
64987;DHT22;67903;52.108;9.358;2023-03-01T15:24:25;4.00;53.80
64987;DHT22;67903;52.108;9.358;2023-03-01T15:26:59;4.00;53.90
64987;DHT22;67903;52.108;9.358;2023-03-01T15:29:33;3.90;54.00
64987;DHT22;67903;52.108;9.358;2023-03-01T15:34:53;3.90;54.20
64987;DHT22;67903;52.108;9.358;2023-03-01T15:37:44;4.00;53.90
64987;DHT22;67903;52.108;9.358;2023-03-01T15:40:23;3.90;53.90
64987;DHT22;67903;52.108;9.358;2023-03-01T15:42:58;3.70;54.30
64987;DHT22;67903;52.108;9.358;2023-03-01T15:45:27;3.80;54.20
64987;DHT22;67903;52.108;9.358;2023-03-01T15:47:56;3.80;53.70
64987;DHT22;67903;52.108;9.358;2023-03-01T15:52:58;3.70;53.50
64987;DHT22;67903;52.108;9.358;2023-03-01T15:55:28;3.70;53.60
64987;DHT22;67903;52.108;9.358;2023-03-01T16:00:42;3.60;53.90
64987;DHT22;67903;52.108;9.358;2023-03-01T16:03:25;3.50;53.90
64987;DHT22;67903;52.108;9.358;2023-03-01T16:05:52;3.50;53.80
64987;DHT22;67903;52.108;9.358;2023-03-01T16:08:20;3.50;54.20
64987;DHT22;67903;52.108;9.358;2023-03-01T16:10:47;3.40;54.50
64987;DHT22;67903;52.108;9.358;2023-03-01T16:13:16;3.50;54.20
64987;DHT22;67903;52.108;9.358;2023-03-01T16:15:44;3.40;54.50
64987;DHT22;67903;52.108;9.358;2023-03-01T16:18:11;3.30;54.90
64987;DHT22;67903;52.108;9.358;2023-03-01T16:20:39;3.30;54.90
64987;DHT22;67903;52.108;9.358;2023-03-01T16:23:08;3.40;54.50
64987;DHT22;67903;52.108;9.358;2023-03-01T16:25:35;3.30;54.70
64987;DHT22;67903;52.108;9.358;2023-03-01T16:28:03;3.10;55.40
64987;DHT22;67903;52.108;9.358;2023-03-01T16:30:36;3.00;55.70
64987;DHT22;67903;52.108;9.358;2023-03-01T16:33:03;3.10;55.30
64987;DHT22;67903;52.108;9.358;2023-03-01T16:35:51;3.10;55.40
64987;DHT22;67903;52.108;9.358;2023-03-01T16:38:17;3.00;55.40
64987;DHT22;67903;52.108;9.358;2023-03-01T16:40:49;3.00;55.40
64987;DHT22;67903;52.108;9.358;2023-03-01T16:43:16;2.90;55.50
64987;DHT22;67903;52.108;9.358;2023-03-01T16:45:43;2.90;55.70
64987;DHT22;67903;52.108;9.358;2023-03-01T16:48:11;2.90;55.50
64987;DHT22;67903;52.108;9.358;2023-03-01T16:50:38;2.80;55.60
64987;DHT22;67903;52.108;9.358;2023-03-01T16:53:05;2.90;55.80
64987;DHT22;67903;52.108;9.358;2023-03-01T16:55:32;2.90;55.50
64987;DHT22;67903;52.108;9.358;2023-03-01T16:58:00;2.90;55.10
64987;DHT22;67903;52.108;9.358;2023-03-01T17:00:27;2.90;55.30
64987;DHT22;67903;52.108;9.358;2023-03-01T17:02:54;2.80;55.20
64987;DHT22;67903;52.108;9.358;2023-03-01T17:05:21;2.90;55.20
64987;DHT22;67903;52.108;9.358;2023-03-01T17:07:50;2.80;55.50
64987;DHT22;67903;52.108;9.358;2023-03-01T17:10:17;2.70;55.50
64987;DHT22;67903;52.108;9.358;2023-03-01T17:12:45;2.70;55.70
64987;DHT22;67903;52.108;9.358;2023-03-01T17:15:13;2.50;56.20
64987;DHT22;67903;52.108;9.358;2023-03-01T17:17:40;2.50;56.20
64987;DHT22;67903;52.108;9.358;2023-03-01T17:20:08;2.50;56.40
64987;DHT22;67903;52.108;9.358;2023-03-01T17:22:35;2.60;56.50
64987;DHT22;67903;52.108;9.358;2023-03-01T17:25:01;2.50;56.80
64987;DHT22;67903;52.108;9.358;2023-03-01T17:27:28;2.40;57.00
64987;DHT22;67903;52.108;9.358;2023-03-01T17:29:55;2.40;57.10
64987;DHT22;67903;52.108;9.358;2023-03-01T17:32:22;2.30;57.20
64987;DHT22;67903;52.108;9.358;2023-03-01T17:34:49;2.10;57.50
64987;DHT22;67903;52.108;9.358;2023-03-01T17:37:16;2.10;58.00
64987;DHT22;67903;52.108;9.358;2023-03-01T17:39:43;1.90;58.60
64987;DHT22;67903;52.108;9.358;2023-03-01T17:42:10;1.90;58.70